Time;durP1;ratioP1;P1;durP2;ratioP2;P2;SDS_P1;SDS_P2;PMS_P1;PMS_P2;Temp;Humidity;BMP_temperature;BMP_pressure;BME280_temperature;BME280_humidity;BME280_pressure;Samples;Min_cycle;Max_cycle;Signal;HPM_P1;HPM_P2
2022/11/11 02:00:28;;;;;;;13.73;4.70;;;;;;;11.12;100.00;102495.19;5056442;28;20064;-73
2022/11/11 02:03:04;;;;;;;17.15;6.30;;;;;;;11.07;100.00;102491.88;5051313;28;20064;-74
2022/11/11 02:05:44;;;;;;;18.80;5.32;;;;;;;11.10;100.00;102491.94;5065178;28;20045;-71
2022/11/11 02:08:30;;;;;;;17.45;6.50;;;;;;;11.07;100.00;102486.34;5071573;28;20048;-71
2022/11/11 02:14:34;;;;;;;15.77;5.30;;;;;;;11.11;100.00;102506.63;5050606;28;20091;-70
2022/11/11 02:16:52;;;;;;;19.17;7.10;;;;;;;11.09;100.00;102506.16;5054521;28;20056;-72
2022/11/11 02:19:28;;;;;;;10.15;4.30;;;;;;;11.10;100.00;102516.88;5066840;28;20059;-69
2022/11/11 02:22:00;;;;;;;12.57;5.10;;;;;;;11.13;100.00;102509.84;5069546;28;20098;-73
2022/11/11 02:24:29;;;;;;;17.48;5.63;;;;;;;11.12;100.00;102505.44;5065903;28;20120;-71
2022/11/11 02:26:57;;;;;;;11.20;4.38;;;;;;;11.10;100.00;102514.13;5050852;28;20045;-73
2022/11/11 02:29:25;;;;;;;14.32;4.20;;;;;;;11.15;100.00;102511.09;5056410;28;20067;-72
2022/11/11 02:31:51;;;;;;;16.55;4.63;;;;;;;11.10;100.00;102510.56;5068997;28;20082;-72
2022/11/11 02:34:18;;;;;;;18.40;5.13;;;;;;;11.10;100.00;102513.34;5066056;28;20056;-72
2022/11/11 02:36:45;;;;;;;17.60;6.18;;;;;;;11.09;100.00;102515.28;5060249;28;20048;-73
2022/11/11 02:39:12;;;;;;;12.85;3.97;;;;;;;11.08;100.00;102510.91;5067122;28;20063;-69
2022/11/11 02:41:58;;;;;;;12.80;4.25;;;;;;;11.03;100.00;102505.63;5068193;28;20505;-72
2022/11/11 02:44:25;;;;;;;7.78;3.00;;;;;;;11.04;100.00;102500.91;5068546;28;20090;-71
2022/11/11 02:46:52;;;;;;;16.20;5.63;;;;;;;11.05;100.00;102508.88;5070152;28;20674;-72
2022/11/11 02:49:19;;;;;;;6.25;3.35;;;;;;;11.02;100.00;102509.56;5059504;28;20059;-73
2022/11/11 02:51:46;;;;;;;8.50;3.22;;;;;;;11.02;100.00;102515.13;5069920;28;20048;-73
2022/11/11 02:54:13;;;;;;;10.98;3.60;;;;;;;11.00;100.00;102506.34;5068181;28;20056;-73
2022/11/11 02:59:25;;;;;;;12.95;4.72;;;;;;;11.00;100.00;102506.34;5069384;28;20127;-74
2022/11/11 03:01:52;;;;;;;11.63;3.40;;;;;;;10.94;100.00;102504.22;5068250;28;20050;-71
2022/11/11 03:04:18;;;;;;;16.35;3.65;;;;;;;10.98;100.00;102497.59;5069463;28;20064;-72
2022/11/11 03:06:45;;;;;;;17.40;4.57;;;;;;;10.96;100.00;102497.16;5068353;28;20053;-72
2022/11/11 03:09:12;;;;;;;15.73;3.85;;;;;;;10.92;100.00;102498.22;5070255;28;20044;-70
2022/11/11 03:11:39;;;;;;;4.95;2.65;;;;;;;10.90;100.00;102497.78;5065059;28;20432;-72
2022/11/11 03:14:07;;;;;;;10.48;3.55;;;;;;;10.91;100.00;102493.84;5054970;28;20053;-71
2022/11/11 03:19:19;;;;;;;11.70;3.65;;;;;;;10.91;100.00;102488.31;5069481;28;20767;-70
2022/11/11 03:21:45;;;;;;;9.73;3.63;;;;;;;10.86;100.00;102494.13;5052741;28;20049;-72
2022/11/11 03:27:17;;;;;;;12.55;3.72;;;;;;;10.81;100.00;102495.19;5051450;28;20049;-72
2022/11/11 03:29:43;;;;;;;12.55;4.10;;;;;;;10.80;100.00;102484.47;5056637;28;20048;-71
2022/11/11 03:32:10;;;;;;;2.85;1.95;;;;;;;10.74;100.00;102489.47;5059573;28;20048;-72
2022/11/11 03:34:37;;;;;;;4.22;2.10;;;;;;;10.76;100.00;102494.66;5066994;28;20045;-71
2022/11/11 03:39:55;;;;;;;11.32;4.05;;;;;;;10.77;100.00;102496.25;5056184;28;20521;-71
2022/11/11 03:42:21;;;;;;;10.65;3.60;;;;;;;10.73;100.00;102489.81;5068592;28;20056;-72
2022/11/11 03:44:48;;;;;;;9.02;3.42;;;;;;;10.67;100.00;102480.97;5067521;28;20044;-72
2022/11/11 03:47:15;;;;;;;10.50;3.75;;;;;;;10.66;100.00;102493.19;5068925;28;20056;-72
2022/11/11 03:49:44;;;;;;;11.82;3.67;;;;;;;10.66;100.00;102484.88;5064087;28;20048;-72
2022/11/11 03:52:11;;;;;;;6.38;1.65;;;;;;;10.58;100.00;102499.69;5066951;28;20060;-72
2022/11/11 03:54:37;;;;;;;13.80;4.45;;;;;;;10.66;100.00;102504.25;5069386;28;20048;-73
2022/11/11 03:59:49;;;;;;;0.68;0.65;;;;;;;10.60;100.00;102510.41;5065968;28;20737;-71
2022/11/11 04:10:31;;;;;;;15.90;4.87;;;;;;;10.57;100.00;102524.97;5052095;28;20048;-73
2022/11/11 04:23:58;;;;;;;9.73;3.90;;;;;;;10.32;100.00;102502.94;5067725;28;20068;-74
2022/11/11 04:26:24;;;;;;;9.95;3.53;;;;;;;10.27;100.00;102516.22;5061391;28;20044;-71
2022/11/11 04:32:34;;;;;;;12.45;3.22;;;;;;;10.19;100.00;102493.06;5059482;28;20059;-71
2022/11/11 04:34:23;;;;;;;13.35;4.72;;;;;;;10.24;100.00;102486.50;5067622;28;20134;-71
2022/11/11 04:36:49;;;;;;;14.80;4.72;;;;;;;10.27;100.00;102491.31;5068302;28;20057;-71
2022/11/11 04:42:01;;;;;;;17.70;5.13;;;;;;;10.31;100.00;102489.47;5067634;28;20071;-72
2022/11/11 04:47:19;;;;;;;8.32;3.20;;;;;;;10.27;100.00;102496.84;5055684;28;20493;-72
2022/11/11 04:49:45;;;;;;;9.88;4.40;;;;;;;10.32;100.00;102502.13;5049882;28;20053;-71
2022/11/11 04:52:27;;;;;;;15.13;3.60;;;;;;;10.27;100.00;102494.88;5065607;28;20163;-71
2022/11/11 04:57:47;;;;;;;12.32;3.92;;;;;;;10.33;100.00;102503.75;5057465;28;20045;-71
2022/11/11 05:00:16;;;;;;;18.80;4.35;;;;;;;10.30;100.00;102505.25;5047992;28;20053;-71
2022/11/11 05:11:00;;;;;;;17.83;4.97;;;;;;;10.22;100.00;102505.41;5057539;28;19925;-70
2022/11/11 05:22:01;;;;;;;12.82;4.60;;;;;;;10.18;100.00;102502.53;5066074;28;20072;-71
2022/11/11 05:27:13;;;;;;;14.95;4.65;;;;;;;10.18;100.00;102510.84;5065175;28;20182;-71
2022/11/11 05:29:39;;;;;;;16.00;4.57;;;;;;;10.16;100.00;102504.84;5066906;28;20056;-72
2022/11/11 05:32:07;;;;;;;14.65;4.57;;;;;;;10.16;100.00;102506.81;5069278;28;20048;-72
2022/11/11 05:34:33;;;;;;;10.57;4.15;;;;;;;10.12;100.00;102520.53;5064836;28;20048;-72
2022/11/11 05:37:00;;;;;;;10.15;4.45;;;;;;;10.15;100.00;102513.50;5070996;28;20158;-72
2022/11/11 05:39:26;;;;;;;12.23;3.72;;;;;;;10.16;100.00;102515.91;5073315;28;20102;-71
2022/11/11 05:41:53;;;;;;;14.38;4.25;;;;;;;10.16;100.00;102509.59;5065073;28;20065;-72
2022/11/11 05:44:19;;;;;;;8.30;3.30;;;;;;;10.17;100.00;102514.75;5061293;28;20049;-72
2022/11/11 05:46:46;;;;;;;14.70;4.32;;;;;;;10.25;100.00;102519.34;5066608;28;20117;-72
2022/11/11 05:49:15;;;;;;;11.50;4.10;;;;;;;10.25;100.00;102515.75;5067633;28;20057;-71
2022/11/11 05:51:45;;;;;;;12.57;3.78;;;;;;;10.27;100.00;102519.78;5062241;28;20410;-72
2022/11/11 05:54:13;;;;;;;13.30;5.35;;;;;;;10.32;100.00;102521.50;5053075;28;20068;-71
2022/11/11 05:56:40;;;;;;;10.43;3.55;;;;;;;10.33;100.00;102526.69;5067728;28;20037;-72
2022/11/11 05:59:07;;;;;;;10.40;3.92;;;;;;;10.32;100.00;102525.09;5067118;28;20040;-72
2022/11/11 06:01:34;;;;;;;13.60;4.45;;;;;;;10.35;100.00;102529.91;5064887;28;20041;-72
2022/11/11 06:04:00;;;;;;;10.63;4.20;;;;;;;10.36;100.00;102531.50;5066934;28;20497;-73
2022/11/11 06:06:27;;;;;;;12.82;4.88;;;;;;;10.28;100.00;102528.91;5070342;28;20481;-72
2022/11/11 06:08:53;;;;;;;11.63;5.03;;;;;;;10.31;100.00;102551.16;5071398;28;20052;-71
2022/11/11 06:11:20;;;;;;;12.98;4.88;;;;;;;10.26;100.00;102545.84;5070131;28;20408;-71
2022/11/11 06:13:47;;;;;;;14.15;4.13;;;;;;;10.14;100.00;102537.59;5057809;28;20060;-72
2022/11/11 06:16:14;;;;;;;12.35;4.63;;;;;;;10.17;100.00;102556.25;5068241;28;20053;-71
2022/11/11 06:18:41;;;;;;;12.48;4.72;;;;;;;10.10;100.00;102558.81;5071279;28;20048;-72
2022/11/11 06:21:07;;;;;;;12.82;4.60;;;;;;;10.09;100.00;102562.72;5070021;28;20056;-71
2022/11/11 06:23:34;;;;;;;12.98;4.72;;;;;;;10.02;100.00;102573.56;5064966;28;20056;-72
2022/11/11 06:26:12;;;;;;;13.88;5.45;;;;;;;9.93;100.00;102580.38;5063939;28;20044;-71
2022/11/11 06:28:48;;;;;;;16.23;5.32;;;;;;;9.87;100.00;102587.28;5064027;28;20048;-71
2022/11/11 06:31:17;;;;;;;20.88;6.88;;;;;;;9.79;100.00;102586.25;5064624;28;20107;-70
2022/11/11 06:33:44;;;;;;;12.80;4.65;;;;;;;9.74;100.00;102593.97;5068126;28;20574;-72
2022/11/11 06:36:12;;;;;;;14.15;5.57;;;;;;;9.64;100.00;102598.03;5067005;28;20052;-72
2022/11/11 06:38:40;;;;;;;16.75;5.95;;;;;;;9.58;100.00;102593.06;5070034;28;20045;-72
2022/11/11 06:41:08;;;;;;;14.45;5.32;;;;;;;9.57;100.00;102597.78;5069403;28;20106;-71
2022/11/11 06:43:35;;;;;;;12.95;4.78;;;;;;;9.54;100.00;102606.78;5063585;28;20059;-71
2022/11/11 06:46:01;;;;;;;11.95;4.20;;;;;;;9.56;100.00;102610.00;5056170;28;20063;-70
2022/11/11 06:48:28;;;;;;;12.43;4.78;;;;;;;9.56;100.00;102601.72;5068466;28;20056;-71
2022/11/11 06:51:01;;;;;;;11.18;4.38;;;;;;;9.56;100.00;102598.97;5067934;28;20052;-72
2022/11/11 06:53:28;;;;;;;10.20;4.10;;;;;;;9.57;100.00;102599.75;5069922;28;20052;-72
2022/11/11 06:55:56;;;;;;;15.02;4.60;;;;;;;9.61;100.00;102606.19;5058156;28;20057;-72
2022/11/11 06:58:23;;;;;;;13.35;5.18;;;;;;;9.60;100.00;102602.63;5054311;28;20057;-71
2022/11/11 07:00:50;;;;;;;12.32;5.00;;;;;;;9.62;100.00;102607.81;5068874;28;20067;-71
2022/11/11 07:03:19;;;;;;;10.80;4.53;;;;;;;9.61;100.00;102609.75;5057298;28;20060;-71
2022/11/11 07:05:51;;;;;;;14.45;4.72;;;;;;;9.64;100.00;102616.56;5062489;28;20143;-72
2022/11/11 07:08:24;;;;;;;15.48;5.13;;;;;;;9.62;100.00;102611.38;5066502;28;20036;-72
2022/11/11 07:10:52;;;;;;;13.15;5.00;;;;;;;9.58;100.00;102610.44;5063322;28;20131;-71
2022/11/11 07:13:18;;;;;;;10.85;4.15;;;;;;;9.55;100.00;102605.59;5071232;28;20048;-72
2022/11/11 07:15:45;;;;;;;15.23;4.82;;;;;;;9.61;100.00;102601.47;5066702;28;20048;-72
2022/11/11 07:18:12;;;;;;;14.63;5.20;;;;;;;9.64;100.00;102603.56;5067494;28;20051;-72
2022/11/11 07:20:39;;;;;;;13.68;4.75;;;;;;;9.58;100.00;102599.41;5069494;28;20071;-70
2022/11/11 07:23:06;;;;;;;18.25;5.45;;;;;;;9.63;100.00;102601.13;5058077;28;20563;-71
2022/11/11 07:25:33;;;;;;;14.90;4.72;;;;;;;9.68;100.00;102598.13;5066053;28;20398;-72
2022/11/11 07:28:00;;;;;;;12.57;4.82;;;;;;;9.73;100.00;102603.44;5058824;28;20048;-73
2022/11/11 07:30:26;;;;;;;15.48;4.65;;;;;;;9.75;100.00;102610.22;5057099;28;20044;-72
2022/11/11 07:32:53;;;;;;;17.25;5.30;;;;;;;9.78;100.00;102615.06;5066265;28;20056;-72
2022/11/11 07:35:21;;;;;;;12.35;4.82;;;;;;;9.84;100.00;102613.69;5071488;28;20048;-72
2022/11/11 07:37:48;;;;;;;13.82;5.38;;;;;;;9.89;100.00;102618.97;5064226;28;20742;-71
2022/11/11 07:40:16;;;;;;;15.40;5.30;;;;;;;9.88;100.00;102611.84;5064434;28;20057;-71
2022/11/11 07:42:43;;;;;;;11.82;4.88;;;;;;;9.92;100.00;102615.50;5049380;28;20131;-71
2022/11/11 07:45:12;;;;;;;13.23;5.03;;;;;;;9.98;100.00;102614.13;5052779;28;20071;-66
2022/11/11 07:47:38;;;;;;;14.00;5.00;;;;;;;10.04;100.00;102620.22;5069127;28;20091;-72
2022/11/11 07:50:06;;;;;;;15.68;5.07;;;;;;;10.13;100.00;102620.94;5056775;28;20075;-70
2022/11/11 07:52:35;;;;;;;13.90;4.65;;;;;;;10.17;100.00;102611.56;5055022;28;20587;-70
2022/11/11 07:55:03;;;;;;;17.00;5.85;;;;;;;10.25;100.00;102621.72;5050339;28;20136;-70
2022/11/11 07:57:30;;;;;;;11.45;4.55;;;;;;;10.31;100.00;102616.75;5049024;28;20056;-70
2022/11/11 07:59:56;;;;;;;10.30;3.80;;;;;;;10.32;100.00;102613.63;5064073;28;20060;-70
2022/11/11 08:02:23;;;;;;;13.60;4.93;;;;;;;10.45;100.00;102617.97;5051817;28;20053;-72
2022/11/11 08:04:49;;;;;;;12.13;4.70;;;;;;;10.52;100.00;102622.91;5052191;28;20889;-70
2022/11/11 08:07:21;;;;;;;16.60;4.78;;;;;;;10.58;100.00;102613.19;5058957;28;20048;-71
2022/11/11 08:09:49;;;;;;;11.95;4.60;;;;;;;10.62;100.00;102624.34;5047573;28;20045;-72
2022/11/11 08:15:21;;;;;;;10.85;3.75;;;;;;;10.75;100.00;102626.75;5024807;28;20156;-70
2022/11/11 08:17:47;;;;;;;15.48;4.70;;;;;;;10.86;100.00;102627.06;5024865;28;20081;-70
2022/11/11 08:20:14;;;;;;;9.73;3.90;;;;;;;10.89;100.00;102631.84;5026455;28;20071;-71
2022/11/11 08:22:41;;;;;;;19.48;4.90;;;;;;;10.98;100.00;102641.66;5064589;28;20147;-73
2022/11/11 08:25:29;;;;;;;9.23;3.95;;;;;;;11.08;100.00;102637.53;5072976;28;20447;-72
2022/11/11 08:28:05;;;;;;;15.02;4.70;;;;;;;11.21;100.00;102641.84;5063569;28;20529;-71
2022/11/11 08:30:32;;;;;;;12.20;4.10;;;;;;;11.30;100.00;102643.28;5054799;28;20049;-69
2022/11/11 08:33:04;;;;;;;15.57;4.00;;;;;;;11.30;100.00;102637.75;5058148;28;20056;-71
2022/11/11 08:35:53;;;;;;;11.20;3.42;;;;;;;11.37;100.00;102631.59;5058673;28;20145;-71
2022/11/11 08:38:23;;;;;;;14.70;4.03;;;;;;;11.46;100.00;102630.25;5056128;28;20055;-72
2022/11/11 08:40:50;;;;;;;7.22;2.53;;;;;;;11.54;100.00;102636.81;5048265;28;20150;-71
2022/11/11 08:43:17;;;;;;;14.40;4.07;;;;;;;11.69;100.00;102636.00;5057167;28;20045;-70
2022/11/11 08:45:44;;;;;;;11.48;3.88;;;;;;;11.79;100.00;102639.06;5067727;28;20056;-71
2022/11/11 08:48:10;;;;;;;9.35;3.78;;;;;;;11.90;100.00;102642.06;5062105;28;20041;-71
2022/11/11 08:50:38;;;;;;;12.18;4.00;;;;;;;12.00;100.00;102645.09;5063192;28;20072;-71
2022/11/11 08:53:07;;;;;;;6.05;2.10;;;;;;;12.00;100.00;102639.56;5060413;28;20060;-71
2022/11/11 08:55:35;;;;;;;9.80;3.50;;;;;;;12.19;100.00;102652.69;5051905;28;20057;-71
2022/11/11 08:58:04;;;;;;;0.60;0.57;;;;;;;12.17;100.00;102641.13;5087865;28;20070;-71
2022/11/11 09:00:32;;;;;;;11.15;3.50;;;;;;;12.30;100.00;102648.97;5077581;28;20052;-71
2022/11/11 09:03:01;;;;;;;9.02;2.97;;;;;;;12.35;100.00;102650.63;5068390;28;20049;-71
2022/11/11 09:05:27;;;;;;;10.32;2.72;;;;;;;12.49;100.00;102646.22;5067566;28;20048;-71
2022/11/11 09:07:54;;;;;;;6.13;1.98;;;;;;;12.56;100.00;102657.47;5060420;28;20052;-71
2022/11/11 09:10:20;;;;;;;11.77;4.15;;;;;;;12.70;100.00;102659.75;5058018;28;20063;-70
2022/11/11 09:12:47;;;;;;;7.70;3.17;;;;;;;12.80;100.00;102667.50;5064203;28;20056;-71
2022/11/11 09:15:13;;;;;;;9.98;3.65;;;;;;;12.91;100.00;102668.53;5066892;28;20060;-70
2022/11/11 09:17:46;;;;;;;7.80;2.90;;;;;;;13.00;100.00;102663.59;5053843;28;20060;-71
2022/11/11 09:20:12;;;;;;;13.80;3.85;;;;;;;13.11;100.00;102664.59;5059225;28;20134;-70
2022/11/11 09:22:43;;;;;;;10.88;2.67;;;;;;;13.16;100.00;102667.06;5067589;28;20052;-71
2022/11/11 09:25:10;;;;;;;10.23;3.22;;;;;;;13.23;100.00;102664.41;5067403;28;20056;-71
2022/11/11 09:27:37;;;;;;;7.85;3.00;;;;;;;13.37;100.00;102656.34;5067081;28;20052;-70
2022/11/11 09:30:04;;;;;;;9.75;2.65;;;;;;;13.44;100.00;102664.81;5066868;28;20060;-71
2022/11/11 09:32:31;;;;;;;9.60;2.55;;;;;;;13.51;100.00;102676.06;5067458;28;20509;-71
2022/11/11 09:34:59;;;;;;;7.22;2.72;;;;;;;13.66;100.00;102664.00;5066320;28;20497;-70
2022/11/11 09:37:26;;;;;;;1.27;0.77;;;;;;;13.61;98.81;102677.44;5065252;28;20048;-71
2022/11/11 09:39:54;;;;;;;8.05;1.55;;;;;;;13.73;98.58;102677.25;5069065;28;20056;-70
2022/11/11 09:42:38;;;;;;;5.15;2.38;;;;;;;13.91;97.47;102679.13;5070598;28;20089;-72
2022/11/11 09:45:16;;;;;;;1.75;1.25;;;;;;;14.01;95.85;102683.28;5070233;28;20065;-69
2022/11/11 09:48:04;;;;;;;4.15;1.23;;;;;;;14.10;91.98;102687.41;5064313;28;20485;-70
2022/11/11 09:50:38;;;;;;;5.95;2.17;;;;;;;14.38;95.45;102684.28;5055399;28;20048;-70
2022/11/11 09:53:31;;;;;;;2.53;1.10;;;;;;;14.42;89.89;102690.69;5063440;28;20163;-70
2022/11/11 09:56:05;;;;;;;6.38;2.35;;;;;;;14.66;90.56;102693.84;5052259;28;20059;-70
2022/11/11 09:59:01;;;;;;;4.10;1.52;;;;;;;14.75;87.44;102699.13;5059050;28;20045;-73
2022/11/11 10:01:35;;;;;;;5.35;1.88;;;;;;;14.87;86.35;102704.44;5065737;28;20113;-72
2022/11/11 10:04:12;;;;;;;7.75;2.13;;;;;;;14.83;82.87;102706.38;5054474;28;20048;-73
2022/11/11 10:06:38;;;;;;;7.15;1.33;;;;;;;14.89;82.19;102699.31;5055179;28;20052;-73
2022/11/11 10:09:30;;;;;;;7.20;1.88;;;;;;;15.09;81.79;102698.75;5056273;28;20083;-73
2022/11/11 10:12:09;;;;;;;6.28;1.67;;;;;;;14.95;79.05;102701.34;5043793;28;20122;-73
2022/11/11 10:14:40;;;;;;;6.22;1.60;;;;;;;15.23;79.22;102693.31;5051319;28;20071;-73
2022/11/11 10:17:28;;;;;;;4.90;1.23;;;;;;;15.45;79.64;102692.41;5067707;28;20063;-72
2022/11/11 10:20:15;;;;;;;6.35;1.58;;;;;;;15.27;76.90;102708.13;5050535;28;20055;-73
2022/11/11 10:22:45;;;;;;;3.53;1.73;;;;;;;15.40;77.10;102695.53;5059977;28;20101;-73
2022/11/11 10:25:11;;;;;;;1.70;0.77;;;;;;;15.38;76.24;102697.91;5056244;28;20056;-71
2022/11/11 10:27:42;;;;;;;6.15;1.77;;;;;;;15.26;75.38;102702.94;5061056;28;20049;-71
2022/11/11 10:30:16;;;;;;;1.08;0.93;;;;;;;15.48;75.08;102693.63;5057816;28;20078;-73
2022/11/11 10:32:46;;;;;;;3.00;1.23;;;;;;;15.63;75.39;102702.94;5064110;28;20052;-73
2022/11/11 10:35:19;;;;;;;3.65;1.48;;;;;;;15.67;73.86;102707.38;5050143;28;20073;-74
2022/11/11 10:37:52;;;;;;;4.43;1.80;;;;;;;16.06;73.62;102693.75;5061386;28;20048;-70
2022/11/11 10:40:28;;;;;;;2.78;1.10;;;;;;;16.19;70.29;102697.81;5062535;28;20056;-71
2022/11/11 10:42:55;;;;;;;6.68;1.65;;;;;;;16.31;70.67;102694.72;5049244;28;20053;-70
2022/11/11 10:45:59;;;;;;;4.72;1.42;;;;;;;16.42;67.79;102701.16;5043981;28;20056;-70
2022/11/11 10:48:40;;;;;;;2.22;1.35;;;;;;;16.87;67.62;102698.66;5055287;28;20152;-72
2022/11/11 10:51:14;;;;;;;5.10;1.35;;;;;;;17.00;64.89;102697.09;5060073;28;20044;-73
2022/11/11 10:54:13;;;;;;;3.47;1.25;;;;;;;17.20;63.51;102703.16;5058936;28;20059;-72
2022/11/11 10:56:47;;;;;;;1.90;0.90;;;;;;;17.34;61.39;102704.00;5054158;28;20048;-72
2022/11/11 10:59:22;;;;;;;3.25;1.80;;;;;;;17.66;63.58;102704.09;5054663;28;20572;-71
2022/11/11 11:01:53;;;;;;;1.25;0.73;;;;;;;17.59;60.04;102698.50;5067807;28;20044;-72
2022/11/11 11:04:30;;;;;;;6.15;2.08;;;;;;;18.30;60.43;102705.69;5048618;28;20074;-73
2022/11/11 11:07:00;;;;;;;2.65;0.77;;;;;;;18.62;55.96;102709.25;5063889;28;20044;-72
2022/11/11 11:09:33;;;;;;;2.10;1.40;;;;;;;18.89;53.94;102709.56;5062477;28;20107;-71
2022/11/11 11:12:25;;;;;;;6.30;1.80;;;;;;;19.32;53.53;102697.78;5063982;28;20048;-71
2022/11/11 11:14:55;;;;;;;1.65;1.00;;;;;;;19.07;50.33;102702.66;5068436;28;20079;-74
2022/11/11 11:17:29;;;;;;;5.13;1.70;;;;;;;18.66;52.23;102696.03;5059141;28;20405;-71
2022/11/11 11:20:13;;;;;;;3.15;1.55;;;;;;;18.96;52.29;102693.50;5061075;28;20123;-70
2022/11/11 11:22:51;;;;;;;4.50;1.88;;;;;;;19.63;51.89;102693.13;5050328;28;20057;-73
2022/11/11 11:25:23;;;;;;;8.75;2.50;;;;;;;19.64;49.47;102689.91;5058736;28;20049;-72
2022/11/11 11:27:51;;;;;;;3.13;1.20;;;;;;;19.93;49.29;102685.69;5055618;28;20052;-74
2022/11/11 11:30:21;;;;;;;7.22;1.92;;;;;;;20.75;47.23;102683.66;5057482;28;20063;-71
2022/11/11 11:33:03;;;;;;;0.55;0.52;;;;;;;20.09;48.08;102690.75;5055778;28;20142;-73
2022/11/11 11:35:43;;;;;;;5.05;1.67;;;;;;;20.01;47.65;102684.41;5052308;28;20064;-73
2022/11/11 11:38:11;;;;;;;2.25;1.08;;;;;;;19.11;50.82;102680.22;5050767;28;20383;-72
2022/11/11 11:40:49;;;;;;;4.15;1.23;;;;;;;19.15;51.27;102689.41;5059663;28;20053;-72
2022/11/11 11:43:26;;;;;;;4.13;1.15;;;;;;;19.07;51.07;102683.03;5055509;28;20057;-73
2022/11/11 11:45:58;;;;;;;3.13;1.23;;;;;;;18.98;50.74;102681.88;5063168;28;20053;-73
2022/11/11 11:48:58;;;;;;;2.00;1.05;;;;;;;19.64;48.50;102689.91;5057147;28;20519;-74
2022/11/11 11:51:30;;;;;;;4.88;1.55;;;;;;;19.77;48.12;102676.97;5056018;28;20071;-74
2022/11/11 11:54:26;;;;;;;2.30;0.80;;;;;;;19.56;47.66;102677.16;5054808;28;20052;-73
2022/11/11 11:56:57;;;;;;;0.70;0.40;;;;;;;19.45;49.31;102673.63;5064693;28;20053;-72
2022/11/11 11:59:49;;;;;;;3.92;1.67;;;;;;;19.64;49.23;102663.88;5048726;28;20867;-68
2022/11/11 12:02:34;;;;;;;2.53;1.30;;;;;;;19.75;47.98;102662.53;5052718;28;20623;-71
2022/11/11 12:05:12;;;;;;;9.32;1.67;;;;;;;19.81;46.64;102666.50;5060307;28;20041;-72
2022/11/11 12:07:39;;;;;;;6.20;1.33;;;;;;;19.66;47.19;102681.09;5051981;28;20045;-70
2022/11/11 12:10:22;;;;;;;1.98;1.17;;;;;;;19.48;47.29;102667.16;5059600;28;20074;-71
2022/11/11 12:13:26;;;;;;;7.13;1.52;;;;;;;19.76;46.96;102657.75;5064481;28;20048;-71
2022/11/11 12:16:15;;;;;;;5.43;1.27;;;;;;;20.13;45.43;102653.00;5053903;28;20053;-71
2022/11/11 12:18:57;;;;;;;13.35;1.55;;;;;;;19.36;47.24;102661.25;5047626;28;20041;-71
2022/11/11 12:21:34;;;;;;;4.57;1.65;;;;;;;20.10;46.20;102653.00;5051277;28;20135;-72
2022/11/11 12:24:10;;;;;;;7.72;1.63;;;;;;;20.33;46.10;102651.19;5055699;28;20056;-72
2022/11/11 12:27:10;;;;;;;6.55;2.17;;;;;;;21.25;43.44;102647.22;5056157;28;20048;-72
2022/11/11 12:29:47;;;;;;;0.47;0.45;;;;;;;20.49;43.36;102653.44;5057258;28;20489;-72
2022/11/11 12:32:19;;;;;;;8.05;2.08;;;;;;;21.06;43.76;102642.28;5053882;28;20056;-72
2022/11/11 12:34:55;;;;;;;6.97;2.75;;;;;;;21.57;42.93;102648.31;5049378;28;20130;-71
2022/11/11 12:37:34;;;;;;;3.65;1.33;;;;;;;20.92;42.45;102646.03;5043442;28;20056;-73
2022/11/11 12:40:23;;;;;;;4.95;1.10;;;;;;;20.81;42.59;102641.78;5049108;28;20040;-72
2022/11/11 12:43:17;;;;;;;7.38;2.00;;;;;;;20.93;43.15;102642.06;5043419;28;20049;-73
2022/11/11 12:45:50;;;;;;;4.38;1.45;;;;;;;20.65;43.21;102644.41;5044712;28;20053;-72
2022/11/11 12:48:42;;;;;;;11.15;1.48;;;;;;;20.93;43.39;102628.00;5037996;28;20049;-72
2022/11/11 12:51:11;;;;;;;3.00;1.45;;;;;;;21.08;43.43;102632.19;5041689;28;20065;-72
2022/11/11 12:53:50;;;;;;;8.48;1.65;;;;;;;21.26;42.56;102637.56;5048654;28;20059;-72
2022/11/11 12:56:36;;;;;;;4.35;2.10;;;;;;;21.54;42.21;102631.50;5042403;28;20067;-72
2022/11/11 12:59:09;;;;;;;10.07;3.97;;;;;;;21.44;43.40;102638.09;5039196;28;20041;-73
2022/11/11 13:01:38;;;;;;;4.68;1.75;;;;;;;21.04;42.83;102633.47;5050045;28;20409;-72
2022/11/11 13:04:14;;;;;;;7.97;3.38;;;;;;;21.30;42.80;102632.69;5045977;28;20063;-72
2022/11/11 13:06:43;;;;;;;5.50;1.77;;;;;;;21.59;42.00;102639.44;5051260;28;20052;-72
2022/11/11 13:09:35;;;;;;;4.97;1.88;;;;;;;21.07;42.80;102641.88;5044852;28;20709;-72
2022/11/11 13:12:20;;;;;;;4.43;1.52;;;;;;;21.19;42.94;102637.69;5046557;28;20745;-72
2022/11/11 13:15:04;;;;;;;3.83;1.13;;;;;;;20.90;42.53;102634.44;5046524;28;20055;-73
2022/11/11 13:17:32;;;;;;;9.32;3.17;;;;;;;21.32;43.09;102633.03;5041126;28;20040;-72
2022/11/11 13:20:06;;;;;;;6.90;2.15;;;;;;;21.81;41.42;102629.44;5053820;28;20082;-72
2022/11/11 13:22:33;;;;;;;14.02;4.00;;;;;;;21.13;42.67;102631.69;5044251;28;20045;-72
2022/11/11 13:25:03;;;;;;;8.05;2.95;;;;;;;21.39;42.17;102630.13;5045335;28;20052;-72
2022/11/11 13:27:38;;;;;;;5.93;1.70;;;;;;;21.31;41.86;102625.81;5057327;28;20074;-72
2022/11/11 13:30:11;;;;;;;5.68;1.45;;;;;;;20.96;42.50;102631.97;5041406;28;20048;-72
2022/11/11 13:32:47;;;;;;;6.28;1.70;;;;;;;21.51;41.86;102629.53;5047512;28;20040;-73
2022/11/11 13:35:28;;;;;;;6.47;1.55;;;;;;;21.98;40.99;102628.34;5050154;28;20052;-73
2022/11/11 13:37:55;;;;;;;6.50;1.95;;;;;;;22.28;40.17;102633.81;5049106;28;20056;-73
2022/11/11 13:40:33;;;;;;;6.50;1.45;;;;;;;21.63;40.58;102631.75;5045623;28;20053;-73
2022/11/11 13:43:00;;;;;;;7.50;1.77;;;;;;;21.83;40.44;102627.78;5052302;28;20828;-72
2022/11/11 13:45:32;;;;;;;6.55;1.95;;;;;;;22.03;40.41;102630.66;5051183;28;20048;-73
2022/11/11 13:47:59;;;;;;;6.22;1.45;;;;;;;22.38;40.17;102636.41;5040437;28;20059;-72
2022/11/11 13:50:36;;;;;;;5.15;1.50;;;;;;;21.83;40.30;102639.06;5040096;28;20057;-73
2022/11/11 13:53:05;;;;;;;6.20;1.90;;;;;;;22.33;39.89;102647.41;5038270;28;20142;-72
2022/11/11 13:55:38;;;;;;;8.38;1.63;;;;;;;21.50;40.87;102642.03;5046700;28;20052;-72
2022/11/11 13:58:06;;;;;;;5.75;1.77;;;;;;;22.46;40.05;102643.53;5043151;28;20051;-72
2022/11/11 14:00:37;;;;;;;4.45;1.02;;;;;;;22.42;39.04;102642.00;5050104;28;20385;-74
2022/11/11 14:03:53;;;;;;;9.18;1.70;;;;;;;22.85;37.98;102654.03;5047517;28;20048;-74
2022/11/11 14:06:35;;;;;;;5.13;1.67;;;;;;;22.24;38.37;102653.63;5052272;28;20063;-70
2022/11/11 14:09:03;;;;;;;2.10;0.95;;;;;;;21.34;39.81;102647.50;5046608;28;20123;-73
2022/11/11 14:11:34;;;;;;;5.43;1.52;;;;;;;21.23;40.83;102647.63;5041503;28;20070;-72
2022/11/11 14:14:25;;;;;;;2.67;1.08;;;;;;;20.82;41.34;102652.59;5058711;28;20056;-72
2022/11/11 14:16:52;;;;;;;4.60;1.60;;;;;;;21.25;41.91;102647.22;5047349;28;20141;-72
2022/11/11 14:19:18;;;;;;;4.65;1.45;;;;;;;20.99;42.10;102640.34;5047342;28;20055;-72
2022/11/11 14:22:00;;;;;;;4.43;1.23;;;;;;;20.26;43.08;102639.22;5043755;28;21003;-73
2022/11/11 14:24:38;;;;;;;7.57;2.08;;;;;;;19.86;44.67;102646.41;5046044;28;20061;-73
2022/11/11 14:27:08;;;;;;;1.90;1.00;;;;;;;19.62;44.63;102641.81;5043706;28;20052;-73
2022/11/11 14:29:47;;;;;;;3.47;1.52;;;;;;;19.46;45.47;102644.34;5046105;28;20086;-73
2022/11/11 14:32:59;;;;;;;6.28;1.40;;;;;;;19.23;45.86;102646.06;5044418;28;20064;-73
2022/11/11 14:35:43;;;;;;;4.72;1.83;;;;;;;18.77;47.67;102637.91;5046038;28;20060;-72
2022/11/11 14:38:33;;;;;;;8.55;2.47;;;;;;;18.44;49.51;102638.44;5041477;28;20059;-72
2022/11/11 14:41:40;;;;;;;7.15;2.00;;;;;;;18.30;50.81;102646.84;5039313;28;20055;-73
2022/11/11 14:44:26;;;;;;;8.90;2.60;;;;;;;18.03;51.74;102651.31;5035278;28;20843;-73
2022/11/11 14:47:01;;;;;;;8.60;2.53;;;;;;;18.10;52.25;102645.69;5046163;28;20048;-65
2022/11/11 14:49:43;;;;;;;10.38;2.78;;;;;;;17.96;52.83;102646.50;5050659;28;20049;-73
2022/11/11 14:52:25;;;;;;;7.60;2.25;;;;;;;17.98;53.28;102648.88;5049105;28;20060;-73